createdAt,value
2023-04-09T00:02:06.756Z,101628.03
2023-04-09T00:04:33.947Z,101628.72
2023-04-09T00:07:01.332Z,101629.63
2023-04-09T00:09:28.351Z,101625.91
2023-04-09T00:11:56.669Z,101626.19
2023-04-09T00:14:23.652Z,101626.53
2023-04-09T00:16:50.690Z,101631.53
2023-04-09T00:19:17.781Z,101624.47
2023-04-09T00:21:44.731Z,101626.09
2023-04-09T00:24:11.845Z,101626.88
2023-04-09T00:26:38.922Z,101631.13
2023-04-09T00:29:06.321Z,101630.81
2023-04-09T00:31:33.716Z,101631.66
2023-04-09T00:34:01.472Z,101627.22
2023-04-09T00:36:28.407Z,101623.59
2023-04-09T00:38:55.767Z,101633.63
2023-04-09T00:41:22.631Z,101626.44
2023-04-09T00:43:49.593Z,101627.03
2023-04-09T00:46:18.055Z,101618.28
2023-04-09T00:48:45.758Z,101623.72
2023-04-09T00:51:12.900Z,101602.22
2023-04-09T00:53:39.930Z,101627.31
2023-04-09T00:56:07.221Z,101621.13
2023-04-09T00:58:36.303Z,101622.59
2023-04-09T01:01:03.625Z,101624.84
2023-04-09T01:03:30.771Z,101613.88
2023-04-09T01:06:06.365Z,101617.44
2023-04-09T01:08:43.549Z,101620.63
2023-04-09T01:11:21.274Z,101616.94
2023-04-09T01:13:51.770Z,101613.44
2023-04-09T01:16:19.594Z,101613.22
2023-04-09T01:18:51.655Z,101611.44
2023-04-09T01:21:20.914Z,101607.78
2023-04-09T01:23:56.287Z,101611.97
2023-04-09T01:26:42.498Z,101608.13
2023-04-09T01:29:11.209Z,101607.34
2023-04-09T01:31:39.326Z,101610.75
2023-04-09T01:34:08.171Z,101608.78
2023-04-09T01:36:35.988Z,101607.72
2023-04-09T01:39:03.503Z,101611.66
2023-04-09T01:41:32.294Z,101608.78
2023-04-09T01:44:02.010Z,101603.53
2023-04-09T01:46:29.925Z,101600.28
2023-04-09T01:48:57.643Z,101612.72
2023-04-09T01:51:24.625Z,101604.88
2023-04-09T01:53:51.604Z,101603.97
2023-04-09T01:56:18.702Z,101603.88
2023-04-09T01:58:46.107Z,101593.50
2023-04-09T02:01:14.785Z,101596.50
2023-04-09T02:03:46.741Z,101594.81
2023-04-09T02:06:28.826Z,101597.47
2023-04-09T02:08:58.852Z,101588.56
2023-04-09T02:11:27.041Z,101600.50
2023-04-09T02:13:54.761Z,101600.28
2023-04-09T02:16:22.123Z,101602.88
2023-04-09T02:18:54.445Z,101599.31
2023-04-09T02:21:22.449Z,101602.94
2023-04-09T02:23:49.631Z,101590.72
2023-04-09T02:26:16.682Z,101600.19
2023-04-09T02:28:43.719Z,101589.91
2023-04-09T02:31:11.614Z,101594.78
2023-04-09T02:33:38.707Z,101598.13
2023-04-09T02:36:06.260Z,101601.00
2023-04-09T02:38:33.435Z,101602.78
2023-04-09T02:41:00.722Z,101611.47
2023-04-09T02:43:27.722Z,101604.56
2023-04-09T02:45:54.776Z,101614.13
2023-04-09T02:48:21.977Z,101606.34
2023-04-09T02:50:49.130Z,101601.16
2023-04-09T02:53:16.142Z,101592.41
2023-04-09T02:55:43.310Z,101594.03
2023-04-09T02:58:10.280Z,101601.66
2023-04-09T03:00:37.197Z,101594.03
2023-04-09T03:03:04.857Z,101597.97
2023-04-09T03:05:31.830Z,101589.84
2023-04-09T03:07:58.734Z,101590.63
2023-04-09T03:10:25.756Z,101594.97
2023-04-09T03:12:52.947Z,101594.47
2023-04-09T03:15:20.032Z,101595.94
2023-04-09T03:17:47.168Z,101596.09
2023-04-09T03:20:14.204Z,101600.03
2023-04-09T03:22:41.251Z,101599.69
2023-04-09T03:25:21.094Z,101598.50
2023-04-09T03:27:51.895Z,101592.81
2023-04-09T03:30:27.133Z,101604.22
2023-04-09T03:32:55.255Z,101593.94
2023-04-09T03:35:24.234Z,101599.59
2023-04-09T03:37:57.392Z,101598.50
2023-04-09T03:40:24.595Z,101596.00
2023-04-09T03:42:51.587Z,101594.13
2023-04-09T03:45:19.082Z,101593.00
2023-04-09T03:47:48.679Z,101590.25
2023-04-09T03:50:16.626Z,101586.91
2023-04-09T03:52:52.826Z,101589.28
2023-04-09T03:55:20.019Z,101591.28
2023-04-09T03:57:48.549Z,101597.22
2023-04-09T04:00:18.406Z,101594.56
2023-04-09T04:02:51.773Z,101592.84
2023-04-09T04:05:31.456Z,101582.97
2023-04-09T04:08:01.370Z,101589.72
2023-04-09T04:10:29.631Z,101588.66
2023-04-09T04:12:56.742Z,101580.81
2023-04-09T04:15:46.629Z,101588.66
2023-04-09T04:18:14.620Z,101590.28
2023-04-09T04:20:48.546Z,101601.06
2023-04-09T04:23:15.574Z,101594.13
2023-04-09T04:25:58.799Z,101592.59
2023-04-09T04:28:36.930Z,101596.81
2023-04-09T04:31:11.530Z,101599.66
2023-04-09T04:33:40.180Z,101607.59
2023-04-09T04:36:12.368Z,101612.44
2023-04-09T04:38:43.049Z,101614.22
2023-04-09T04:41:22.524Z,101615.84
2023-04-09T04:44:02.498Z,101606.63
2023-04-09T04:46:29.543Z,101610.25
2023-04-09T04:48:58.883Z,101610.19
2023-04-09T04:51:27.859Z,101609.44
2023-04-09T04:54:05.056Z,101610.19
2023-04-09T04:56:32.264Z,101610.19
2023-04-09T04:59:04.611Z,101616.31
2023-04-09T05:01:43.956Z,101619.16
2023-04-09T05:04:13.175Z,101619.00
2023-04-09T05:06:40.241Z,101616.47
2023-04-09T05:09:11.730Z,101620.13
2023-04-09T05:11:46.594Z,101629.69
2023-04-09T05:14:18.744Z,101630.34
2023-04-09T05:16:46.043Z,101633.72
2023-04-09T05:19:13.645Z,101632.03
2023-04-09T05:21:40.662Z,101638.84
2023-04-09T05:24:29.212Z,101635.34
2023-04-09T05:26:56.393Z,101636.91
2023-04-09T05:29:23.914Z,101639.81
2023-04-09T05:31:51.303Z,101636.56
2023-04-09T05:34:29.523Z,101644.91
2023-04-09T05:36:57.379Z,101647.41
2023-04-09T05:39:25.684Z,101642.19
2023-04-09T05:42:02.019Z,101635.69
2023-04-09T05:44:33.819Z,101641.84
2023-04-09T05:47:09.439Z,101647.19
2023-04-09T05:49:45.087Z,101659.25
2023-04-09T05:52:16.332Z,101657.97
2023-04-09T05:54:43.390Z,101653.84
2023-04-09T05:57:13.388Z,101666.22
2023-04-09T05:59:43.964Z,101668.25
2023-04-09T06:02:11.168Z,101671.81
2023-04-09T06:04:38.628Z,101671.13
2023-04-09T06:07:05.872Z,101664.72
2023-04-09T06:09:32.880Z,101671.03
2023-04-09T06:12:02.810Z,101673.94
2023-04-09T06:14:30.157Z,101683.00
2023-04-09T06:16:58.931Z,101681.56
2023-04-09T06:19:26.345Z,101675.78
2023-04-09T06:21:53.353Z,101671.88
2023-04-09T06:24:20.347Z,101674.91
2023-04-09T06:26:47.473Z,101671.81
2023-04-09T06:29:14.700Z,101670.47
2023-04-09T06:31:42.221Z,101666.53
2023-04-09T06:34:09.342Z,101666.91
2023-04-09T06:36:37.881Z,101672.69
2023-04-09T06:39:04.945Z,101675.78
2023-04-09T06:41:32.716Z,101680.59
2023-04-09T06:43:59.992Z,101684.78
2023-04-09T06:46:26.985Z,101689.59
2023-04-09T06:48:54.193Z,101692.53
2023-04-09T06:51:21.131Z,101687.00
2023-04-09T06:53:48.475Z,101693.47
2023-04-09T06:56:15.899Z,101692.91
2023-04-09T06:58:42.944Z,101694.75
2023-04-09T07:01:10.214Z,101700.03
2023-04-09T07:03:37.360Z,101689.75
2023-04-09T07:06:04.433Z,101692.56
2023-04-09T07:08:31.562Z,101692.63
2023-04-09T07:10:58.622Z,101692.81
2023-04-09T07:13:25.690Z,101691.25
2023-04-09T07:15:52.612Z,101700.09
2023-04-09T07:18:20.278Z,101706.22
2023-04-09T07:20:47.365Z,101713.56
2023-04-09T07:23:15.013Z,101703.59
2023-04-09T07:25:42.613Z,101706.91
2023-04-09T07:28:09.907Z,101714.28
2023-04-09T07:30:36.990Z,101705.78
2023-04-09T07:33:04.051Z,101701.63
2023-04-09T07:35:32.335Z,101699.16
2023-04-09T07:37:59.391Z,101694.16
2023-04-09T07:40:26.546Z,101690.31
2023-04-09T07:42:54.273Z,101692.88
2023-04-09T07:45:21.317Z,101691.75
2023-04-09T07:47:48.481Z,101687.22
2023-04-09T07:50:16.078Z,101689.97
2023-04-09T07:52:43.373Z,101693.13
2023-04-09T07:55:10.402Z,101683.25
2023-04-09T07:57:37.784Z,101679.41
2023-04-09T08:00:05.523Z,101678.47
2023-04-09T08:02:40.112Z,101685.97
2023-04-09T08:05:08.160Z,101678.88
2023-04-09T08:07:35.401Z,101676.13
2023-04-09T08:10:02.714Z,101677.94
2023-04-09T08:12:30.522Z,101670.81
2023-04-09T08:14:57.715Z,101680.13
2023-04-09T08:17:24.896Z,101673.66
2023-04-09T08:19:52.061Z,101675.13
2023-04-09T08:22:18.965Z,101674.72
2023-04-09T08:24:51.090Z,101670.13
2023-04-09T08:27:18.305Z,101668.03
2023-04-09T08:29:45.376Z,101674.81
2023-04-09T08:32:13.027Z,101667.50
2023-04-09T08:34:40.075Z,101667.06
2023-04-09T08:37:07.278Z,101671.81
2023-04-09T08:39:34.541Z,101679.22
2023-04-09T08:42:02.204Z,101677.69
2023-04-09T08:44:30.487Z,101669.06
2023-04-09T08:46:59.627Z,101675.41
2023-04-09T08:49:26.817Z,101670.97
2023-04-09T08:51:53.729Z,101673.81
2023-04-09T08:54:20.781Z,101665.50
2023-04-09T08:56:47.811Z,101677.25
2023-04-09T08:59:18.799Z,101679.31
2023-04-09T09:01:48.167Z,101682.16
2023-04-09T09:04:15.313Z,101684.97
2023-04-09T09:06:42.340Z,101681.69
2023-04-09T09:09:13.234Z,101678.47
2023-04-09T09:11:45.047Z,101682.22
2023-04-09T09:14:18.367Z,101678.09
2023-04-09T09:17:06.458Z,101678.19
2023-04-09T09:19:35.811Z,101677.47
2023-04-09T09:22:06.855Z,101679.28
2023-04-09T09:24:36.672Z,101678.50
2023-04-09T09:27:03.748Z,101677.88
2023-04-09T09:29:30.692Z,101675.34
2023-04-09T09:31:57.905Z,101676.31
2023-04-09T09:34:25.546Z,101679.13
2023-04-09T09:36:53.927Z,101676.59
2023-04-09T09:39:22.404Z,101671.41
2023-04-09T09:42:06.862Z,101665.38
2023-04-09T09:44:34.087Z,101658.31
2023-04-09T09:47:01.081Z,101671.53
2023-04-09T09:49:28.520Z,101665.56
2023-04-09T09:51:57.976Z,101661.28
2023-04-09T09:54:26.003Z,101658.69
2023-04-09T09:56:56.097Z,101655.25
2023-04-09T09:59:27.207Z,101655.31
2023-04-09T10:01:59.075Z,101652.72
2023-04-09T10:04:28.842Z,101658.94
2023-04-09T10:06:57.086Z,101664.28
2023-04-09T10:09:28.824Z,101667.81
2023-04-09T10:11:58.347Z,101665.19
2023-04-09T10:14:26.707Z,101679.28
2023-04-09T10:16:57.771Z,101663.41
2023-04-09T10:19:26.604Z,101664.28
2023-04-09T10:22:00.527Z,101667.81
2023-04-09T10:24:27.606Z,101670.47
2023-04-09T10:26:55.141Z,101660.75
2023-04-09T10:29:28.388Z,101667.81
2023-04-09T10:32:08.914Z,101666.00
2023-04-09T10:34:41.231Z,101660.72
2023-04-09T10:37:15.800Z,101662.41
2023-04-09T10:39:47.585Z,101663.25
2023-04-09T10:42:27.529Z,101665.84
2023-04-09T10:45:14.724Z,101658.72
2023-04-09T10:47:44.917Z,101649.84
2023-04-09T10:50:20.129Z,101655.09
2023-04-09T10:52:48.040Z,101647.94
2023-04-09T10:55:34.679Z,101644.34
2023-04-09T10:58:11.891Z,101640.66
2023-04-09T11:00:41.012Z,101637.94
2023-04-09T11:03:21.994Z,101637.84
2023-04-09T11:05:54.223Z,101636.03
2023-04-09T11:08:22.454Z,101635.03
2023-04-09T11:10:53.811Z,101634.06
2023-04-09T11:13:22.060Z,101626.94
2023-04-09T11:15:49.057Z,101625.84
2023-04-09T11:18:21.291Z,101629.16
2023-04-09T11:20:48.806Z,101619.34
2023-04-09T11:23:16.306Z,101622.94
2023-04-09T11:25:43.412Z,101626.47
2023-04-09T11:28:10.399Z,101628.38
2023-04-09T11:30:37.769Z,101627.47
2023-04-09T11:33:04.814Z,101637.34
2023-04-09T11:35:35.053Z,101623.91
2023-04-09T11:38:06.475Z,101629.84
2023-04-09T11:40:33.514Z,101628.03
2023-04-09T11:43:01.229Z,101619.09
2023-04-09T11:45:29.249Z,101627.97
2023-04-09T11:47:56.944Z,101620.78
2023-04-09T11:50:24.021Z,101630.53
2023-04-09T11:52:51.205Z,101624.91
2023-04-09T11:55:25.538Z,101631.09
2023-04-09T11:57:53.742Z,101631.94
2023-04-09T12:00:20.929Z,101628.34
2023-04-09T12:02:49.263Z,101625.50
2023-04-09T12:05:29.720Z,101631.59
2023-04-09T12:08:05.204Z,101642.16
2023-04-09T12:10:33.456Z,101636.78
2023-04-09T12:13:13.898Z,101633.56
2023-04-09T12:15:43.721Z,101623.38
2023-04-09T12:18:14.447Z,101627.97
2023-04-09T12:20:45.252Z,101626.94
2023-04-09T12:23:13.205Z,101624.13
2023-04-09T12:25:42.276Z,101628.72
2023-04-09T12:28:10.296Z,101619.94
2023-04-09T12:30:37.358Z,101624.94
2023-04-09T12:33:04.930Z,101622.56
2023-04-09T12:35:34.852Z,101626.09
2023-04-09T12:38:02.941Z,101618.69
2023-04-09T12:40:32.457Z,101617.72
2023-04-09T12:43:00.522Z,101619.72
2023-04-09T12:45:28.236Z,101614.47
2023-04-09T12:47:55.330Z,101620.56
2023-04-09T12:50:22.466Z,101615.03
2023-04-09T12:52:49.434Z,101614.22
2023-04-09T12:55:17.000Z,101615.13
2023-04-09T12:57:45.003Z,101601.28
2023-04-09T13:00:12.501Z,101600.25
2023-04-09T13:02:39.926Z,101597.69
2023-04-09T13:05:07.567Z,101602.31
2023-04-09T13:07:34.570Z,101592.81
2023-04-09T13:10:01.710Z,101593.41
2023-04-09T13:12:28.808Z,101600.19
2023-04-09T13:14:55.886Z,101586.69
2023-04-09T13:17:25.821Z,101593.03
2023-04-09T13:19:53.074Z,101578.00
2023-04-09T13:22:20.077Z,101578.91
2023-04-09T13:24:48.452Z,101585.03
2023-04-09T13:27:17.557Z,101584.22
2023-04-09T13:29:49.083Z,101588.69
2023-04-09T13:32:18.485Z,101586.03
2023-04-09T13:34:45.499Z,101583.44
2023-04-09T13:37:13.548Z,101586.75
2023-04-09T13:39:40.894Z,101583.78
2023-04-09T13:42:13.746Z,101580.22
2023-04-09T13:44:46.178Z,101568.41
2023-04-09T13:47:14.531Z,101572.88
2023-04-09T13:49:43.729Z,101565.41
2023-04-09T13:52:13.058Z,101558.16
2023-04-09T13:54:43.039Z,101554.97
2023-04-09T13:57:11.281Z,101555.53
2023-04-09T13:59:43.123Z,101546.09
2023-04-09T14:02:11.765Z,101553.31
2023-04-09T14:04:39.187Z,101538.13
2023-04-09T14:07:06.580Z,101542.28
2023-04-09T14:09:33.541Z,101540.63
2023-04-09T14:12:01.693Z,101534.50
2023-04-09T14:14:28.725Z,101540.59
2023-04-09T14:16:55.623Z,101529.13
2023-04-09T14:19:23.238Z,101529.97
2023-04-09T14:21:53.470Z,101527.19
2023-04-09T14:24:23.173Z,101524.34
2023-04-09T14:26:51.705Z,101527.09
2023-04-09T14:29:18.922Z,101524.41
2023-04-09T14:31:47.652Z,101525.94
2023-04-09T14:34:14.761Z,101519.31
2023-04-09T14:36:41.747Z,101518.66
2023-04-09T14:39:09.304Z,101523.81
2023-04-09T14:41:36.801Z,101516.91
2023-04-09T14:44:03.814Z,101515.25
2023-04-09T14:46:31.058Z,101518.38
2023-04-09T14:49:01.260Z,101513.31
2023-04-09T14:51:30.638Z,101510.16
2023-04-09T14:53:58.175Z,101510.19
2023-04-09T14:56:28.085Z,101511.78
2023-04-09T14:58:56.138Z,101503.38
2023-04-09T15:01:23.457Z,101509.31
2023-04-09T15:03:50.816Z,101502.16
2023-04-09T15:06:17.948Z,101502.16
2023-04-09T15:08:45.820Z,101502.06
2023-04-09T15:11:19.590Z,101501.91
2023-04-09T15:13:50.311Z,101507.47
2023-04-09T15:16:22.031Z,101502.63
2023-04-09T15:18:52.516Z,101507.22
2023-04-09T15:21:19.784Z,101512.66
2023-04-09T15:23:46.943Z,101517.13
2023-04-09T15:26:13.887Z,101508.28
2023-04-09T15:28:40.981Z,101521.69
2023-04-09T15:31:07.935Z,101512.66
2023-04-09T15:33:34.877Z,101506.66
2023-04-09T15:36:01.967Z,101513.91
2023-04-09T15:38:29.373Z,101514.28
2023-04-09T15:40:57.116Z,101505.31
2023-04-09T15:43:24.219Z,101507.31
2023-04-09T15:45:51.633Z,101506.34
2023-04-09T15:48:19.515Z,101523.44
2023-04-09T15:50:46.926Z,101521.81
2023-04-09T15:53:14.586Z,101526.25
2023-04-09T15:55:41.738Z,101529.16
2023-04-09T15:58:08.781Z,101525.97
2023-04-09T16:00:36.321Z,101524.28
2023-04-09T16:03:03.593Z,101527.28
2023-04-09T16:05:30.694Z,101523.00
2023-04-09T16:07:59.944Z,101527.53
2023-04-09T16:10:30.778Z,101534.69
2023-04-09T16:13:00.870Z,101529.41
2023-04-09T16:15:27.879Z,101529.59
2023-04-09T16:17:54.917Z,101527.00
2023-04-09T16:20:21.972Z,101528.84
2023-04-09T16:22:48.881Z,101527.94
2023-04-09T16:25:15.962Z,101536.91
2023-04-09T16:27:42.850Z,101536.00
2023-04-09T16:30:10.091Z,101537.03
2023-04-09T16:32:37.266Z,101533.50
2023-04-09T16:35:04.336Z,101530.06
2023-04-09T16:37:31.430Z,101538.16
2023-04-09T16:39:59.169Z,101539.06
2023-04-09T16:42:27.619Z,101531.22
2023-04-09T16:44:54.640Z,101530.38
2023-04-09T16:47:21.722Z,101541.13
2023-04-09T16:49:48.756Z,101542.09
2023-04-09T16:52:15.875Z,101550.97
2023-04-09T16:54:42.821Z,101552.88
2023-04-09T16:57:13.154Z,101543.19
2023-04-09T16:59:42.711Z,101552.97
2023-04-09T17:02:09.648Z,101555.72
2023-04-09T17:04:38.379Z,101557.25
2023-04-09T17:07:05.304Z,101553.94
2023-04-09T17:09:32.279Z,101561.94
2023-04-09T17:11:59.459Z,101553.19
2023-04-09T17:14:26.591Z,101565.69
2023-04-09T17:16:54.089Z,101564.94
2023-04-09T17:19:21.231Z,101567.59
2023-04-09T17:21:48.375Z,101566.56
2023-04-09T17:24:15.667Z,101567.63
2023-04-09T17:26:42.934Z,101571.22
2023-04-09T17:29:09.929Z,101567.00
2023-04-09T17:31:36.919Z,101567.97
2023-04-09T17:34:04.117Z,101571.69
2023-04-09T17:36:32.052Z,101571.81
2023-04-09T17:38:59.055Z,101579.94
2023-04-09T17:41:26.367Z,101588.03
2023-04-09T17:43:53.918Z,101591.69
2023-04-09T17:46:21.055Z,101592.75
2023-04-09T17:48:50.088Z,101591.97
2023-04-09T17:51:19.474Z,101592.06
2023-04-09T17:53:47.590Z,101597.47
2023-04-09T17:56:18.076Z,101597.56
2023-04-09T17:58:45.290Z,101594.91
2023-04-09T18:01:15.796Z,101604.69
2023-04-09T18:03:43.268Z,101601.28
2023-04-09T18:06:10.389Z,101602.22
2023-04-09T18:08:37.741Z,101604.94
2023-04-09T18:11:12.664Z,101610.31
2023-04-09T18:13:40.694Z,101603.31
2023-04-09T18:16:12.411Z,101605.13
2023-04-09T18:18:39.708Z,101613.06
2023-04-09T18:21:06.866Z,101601.63
2023-04-09T18:23:34.118Z,101612.19
2023-04-09T18:26:01.339Z,101611.34
2023-04-09T18:28:28.380Z,101616.63
2023-04-09T18:30:55.582Z,101606.94
2023-04-09T18:33:22.488Z,101608.72
2023-04-09T18:35:49.441Z,101609.63
2023-04-09T18:38:17.819Z,101621.97
2023-04-09T18:40:45.101Z,101617.53
2023-04-09T18:43:12.785Z,101627.25
2023-04-09T18:45:40.618Z,101629.84
2023-04-09T18:48:09.030Z,101641.28
2023-04-09T18:50:36.344Z,101642.16
2023-04-09T18:53:03.820Z,101637.72
2023-04-09T18:55:31.021Z,101624.47
2023-04-09T18:57:58.593Z,101642.09
2023-04-09T19:00:25.773Z,101649.13
2023-04-09T19:02:53.043Z,101652.59
2023-04-09T19:05:20.416Z,101651.69
2023-04-09T19:07:47.437Z,101653.38
2023-04-09T19:10:14.412Z,101653.31
2023-04-09T19:12:48.675Z,101655.03
2023-04-09T19:15:16.244Z,101654.13
2023-04-09T19:17:43.334Z,101652.25
2023-04-09T19:20:10.760Z,101656.59
2023-04-09T19:22:37.901Z,101667.97
2023-04-09T19:25:06.457Z,101665.28
2023-04-09T19:27:33.438Z,101668.75
2023-04-09T19:30:01.291Z,101673.06
2023-04-09T19:32:28.281Z,101671.22
2023-04-09T19:34:56.022Z,101673.78
2023-04-09T19:37:27.650Z,101675.56
2023-04-09T19:39:55.214Z,101682.53
2023-04-09T19:42:22.120Z,101682.56
2023-04-09T19:44:48.999Z,101700.09
2023-04-09T19:47:16.197Z,101688.63
2023-04-09T19:49:43.858Z,101692.94
2023-04-09T19:52:10.921Z,101702.53
2023-04-09T19:54:37.931Z,101705.97
2023-04-09T19:57:05.095Z,101711.22
2023-04-09T19:59:36.545Z,101712.03
2023-04-09T20:02:03.701Z,101715.38
2023-04-09T20:04:31.189Z,101719.66
2023-04-09T20:06:58.330Z,101716.88
2023-04-09T20:09:27.832Z,101719.38
2023-04-09T20:11:55.072Z,101717.50
2023-04-09T20:14:22.101Z,101714.66
2023-04-09T20:16:49.401Z,101718.97
2023-04-09T20:19:16.837Z,101720.56
2023-04-09T20:21:44.177Z,101721.31
2023-04-09T20:24:11.618Z,101722.13
2023-04-09T20:26:38.648Z,101726.38
2023-04-09T20:29:05.595Z,101716.59
2023-04-09T20:31:35.141Z,101729.72
2023-04-09T20:34:02.545Z,101726.88
2023-04-09T20:36:29.527Z,101719.53
2023-04-09T20:38:56.624Z,101725.59
2023-04-09T20:41:23.620Z,101718.50
2023-04-09T20:43:50.580Z,101717.66
2023-04-09T20:46:17.537Z,101720.91
2023-04-09T20:48:44.696Z,101721.72
2023-04-09T20:51:11.914Z,101712.00
2023-04-09T20:54:00.024Z,101727.59
2023-04-09T20:56:27.592Z,101726.63
2023-04-09T20:58:54.793Z,101726.50
2023-04-09T21:01:22.049Z,101736.03
2023-04-09T21:03:50.273Z,101741.13
2023-04-09T21:06:20.096Z,101737.47
2023-04-09T21:08:47.311Z,101738.22
2023-04-09T21:11:16.466Z,101736.16
2023-04-09T21:13:54.032Z,101733.53
2023-04-09T21:16:23.363Z,101740.41
2023-04-09T21:18:50.798Z,101737.63
2023-04-09T21:21:18.749Z,101748.84
2023-04-09T21:23:45.918Z,101745.22
2023-04-09T21:26:13.627Z,101753.00
2023-04-09T21:28:41.318Z,101750.25
2023-04-09T21:31:10.151Z,101757.94
2023-04-09T21:33:39.236Z,101762.28
2023-04-09T21:36:08.161Z,101767.50
2023-04-09T21:38:36.322Z,101763.84
2023-04-09T21:41:07.223Z,101768.22
2023-04-09T21:43:35.536Z,101765.56
2023-04-09T21:46:03.198Z,101765.47
2023-04-09T21:48:30.964Z,101766.31
2023-04-09T21:50:58.807Z,101760.75
2023-04-09T21:53:26.266Z,101758.19
2023-04-09T21:55:53.235Z,101763.34
2023-04-09T21:58:20.166Z,101763.22
2023-04-09T22:00:47.209Z,101769.34
2023-04-09T22:03:14.316Z,101760.41
2023-04-09T22:05:41.333Z,101756.81
2023-04-09T22:08:08.357Z,101777.72
2023-04-09T22:10:35.804Z,101777.59
2023-04-09T22:13:02.808Z,101773.94
2023-04-09T22:15:29.887Z,101773.91
2023-04-09T22:17:57.948Z,101776.47
2023-04-09T22:20:26.555Z,101773.81
2023-04-09T22:22:54.279Z,101781.53
2023-04-09T22:25:21.449Z,101775.16
2023-04-09T22:27:52.490Z,101772.50
2023-04-09T22:30:20.993Z,101770.53
2023-04-09T22:32:48.062Z,101779.41
2023-04-09T22:35:18.447Z,101784.56
2023-04-09T22:37:47.384Z,101782.69
2023-04-09T22:40:15.736Z,101783.34
2023-04-09T22:42:43.261Z,101781.44
2023-04-09T22:45:11.387Z,101768.16
2023-04-09T22:47:39.046Z,101762.81
2023-04-09T22:50:07.151Z,101765.03
2023-04-09T22:52:34.153Z,101768.41
2023-04-09T22:55:01.580Z,101769.13
2023-04-09T22:57:28.615Z,101771.75
2023-04-09T22:59:55.629Z,101776.72
2023-04-09T23:02:22.698Z,101776.56
2023-04-09T23:04:49.777Z,101784.28
2023-04-09T23:07:16.721Z,101777.19
2023-04-09T23:09:43.656Z,101776.81
2023-04-09T23:12:10.683Z,101779.44
2023-04-09T23:14:37.766Z,101774.88
2023-04-09T23:17:04.694Z,101782.59
2023-04-09T23:19:31.666Z,101777.22
2023-04-09T23:21:58.639Z,101779.59
2023-04-09T23:24:25.614Z,101784.59
2023-04-09T23:26:52.487Z,101776.44
2023-04-09T23:29:19.526Z,101773.09
2023-04-09T23:31:46.585Z,101779.31
2023-04-09T23:34:13.751Z,101772.44
2023-04-09T23:36:40.834Z,101779.31
2023-04-09T23:39:07.883Z,101774.03
2023-04-09T23:41:34.894Z,101779.25
2023-04-09T23:44:01.870Z,101768.75
2023-04-09T23:46:28.943Z,101774.81
2023-04-09T23:48:55.956Z,101767.69
2023-04-09T23:51:22.927Z,101769.28
2023-04-09T23:53:50.153Z,101768.53
2023-04-09T23:56:17.224Z,101771.00
2023-04-09T23:58:44.203Z,101766.72
